Time;durP1;ratioP1;P1;durP2;ratioP2;P2;SDS_P1;SDS_P2;PMS_P1;PMS_P2;Temp;Humidity;BMP_temperature;BMP_pressure;BME280_temperature;BME280_humidity;BME280_pressure;Samples;Min_cycle;Max_cycle;Signal;HPM_P1;HPM_P2
2021/05/02 00:02:10;;;;;;;33.05;28.88;;;;;;;;;;5008020;28;20189;-45
2021/05/02 00:04:36;;;;;;;31.40;26.97;;;;;;;;;;5007686;28;20178;-43
2021/05/02 00:07:02;;;;;;;32.20;27.37;;;;;;;;;;5007986;28;20183;-43
2021/05/02 00:09:28;;;;;;;38.17;28.67;;;;;;;;;;5008417;28;20212;-43
2021/05/02 00:11:53;;;;;;;30.50;26.50;;;;;;;;;;4988839;28;562292;-43
2021/05/02 00:14:19;;;;;;;36.72;29.48;;;;;;;;;;5009066;28;20611;-43
2021/05/02 00:16:44;;;;;;;33.72;28.30;;;;;;;;;;5008770;28;20630;-45
2021/05/02 00:19:09;;;;;;;30.87;27.47;;;;;;;;;;5007982;28;20179;-44
2021/05/02 00:21:35;;;;;;;33.37;28.40;;;;;;;;;;5009043;28;20180;-44
2021/05/02 00:24:01;;;;;;;33.90;28.03;;;;;;;;;;5008839;28;20172;-44
2021/05/02 00:26:27;;;;;;;35.87;29.93;;;;;;;;;;5008147;28;20214;-45
2021/05/02 00:28:52;;;;;;;40.83;31.30;;;;;;;;;;5009047;28;20631;-45
2021/05/02 00:31:18;;;;;;;33.07;27.77;;;;;;;;;;5008145;28;20176;-45
2021/05/02 00:33:43;;;;;;;42.03;32.93;;;;;;;;;;5007922;28;20177;-45
2021/05/02 00:36:09;;;;;;;40.97;31.77;;;;;;;;;;5008335;28;20184;-43
2021/05/02 00:38:35;;;;;;;41.27;32.37;;;;;;;;;;5008521;28;20231;-45
2021/05/02 00:41:03;;;;;;;35.67;29.67;;;;;;;;;;5008607;28;20185;-44
2021/05/02 00:43:51;;;;;;;37.60;29.80;;;;;;;;;;5007951;28;20656;-45
2021/05/02 00:46:22;;;;;;;39.70;31.47;;;;;;;;;;5006985;28;20628;-44
2021/05/02 00:48:53;;;;;;;42.30;31.37;;;;;;;;;;5007912;28;20634;-44
2021/05/02 00:51:19;;;;;;;39.00;30.03;;;;;;;;;;5008451;28;21158;-44
2021/05/02 00:53:54;;;;;;;36.90;30.50;;;;;;;;;;5006979;28;20605;-44
2021/05/02 00:56:29;;;;;;;44.23;33.50;;;;;;;;;;5002792;28;20629;-44
2021/05/02 00:59:14;;;;;;;48.47;34.97;;;;;;;;;;5007214;28;20738;-44
2021/05/02 01:01:42;;;;;;;42.13;33.57;;;;;;;;;;5010347;28;20640;-44
2021/05/02 01:04:09;;;;;;;46.93;33.77;;;;;;;;;;5006292;28;20767;-43
2021/05/02 01:06:35;;;;;;;51.17;38.53;;;;;;;;;;5007972;28;21176;-43
2021/05/02 01:09:02;;;;;;;47.93;37.60;;;;;;;;;;5007791;28;20679;-43
2021/05/02 01:11:28;;;;;;;55.50;40.20;;;;;;;;;;5007607;28;21302;-44
2021/05/02 01:13:57;;;;;;;47.57;35.40;;;;;;;;;;5007786;28;20595;-44
2021/05/02 01:16:23;;;;;;;48.10;35.37;;;;;;;;;;5007147;28;20183;-44
2021/05/02 01:18:49;;;;;;;44.13;35.60;;;;;;;;;;5007141;28;20706;-44
2021/05/02 01:21:16;;;;;;;46.47;34.67;;;;;;;;;;5008214;28;20572;-44
2021/05/02 01:23:42;;;;;;;51.37;37.67;;;;;;;;;;5007643;28;20187;-45
2021/05/02 01:26:07;;;;;;;46.43;35.60;;;;;;;;;;5007029;28;20601;-44
2021/05/02 01:28:34;;;;;;;57.13;39.60;;;;;;;;;;5007075;28;20264;-44
2021/05/02 01:30:59;;;;;;;45.43;35.77;;;;;;;;;;5007729;28;20268;-44
2021/05/02 01:33:24;;;;;;;54.15;38.13;;;;;;;;;;5007339;28;21053;-44
2021/05/02 01:35:50;;;;;;;56.03;40.70;;;;;;;;;;5007308;28;20186;-44
2021/05/02 01:38:15;;;;;;;47.40;35.83;;;;;;;;;;5006890;28;20206;-44
2021/05/02 01:40:41;;;;;;;52.30;37.70;;;;;;;;;;5002888;28;20182;-44
2021/05/02 01:43:06;;;;;;;54.27;38.10;;;;;;;;;;5001730;28;20188;-45
2021/05/02 01:45:31;;;;;;;50.07;37.20;;;;;;;;;;5007738;28;20184;-44
2021/05/02 01:48:04;;;;;;;55.30;38.87;;;;;;;;;;5006561;28;20245;-44
2021/05/02 01:50:31;;;;;;;50.10;37.73;;;;;;;;;;5006855;28;20678;-45
2021/05/02 01:52:56;;;;;;;62.03;42.17;;;;;;;;;;5006928;28;20592;-44
2021/05/02 01:55:22;;;;;;;52.40;38.80;;;;;;;;;;5007090;28;20608;-44
2021/05/02 01:57:49;;;;;;;60.60;41.63;;;;;;;;;;5006412;28;20196;-44
2021/05/02 02:00:14;;;;;;;49.60;38.83;;;;;;;;;;5006656;28;20217;-45
2021/05/02 02:02:40;;;;;;;55.63;40.40;;;;;;;;;;5006865;28;21277;-44
2021/05/02 02:05:05;;;;;;;55.63;40.67;;;;;;;;;;5007832;28;20260;-44
2021/05/02 02:07:31;;;;;;;56.60;39.57;;;;;;;;;;5007198;28;20646;-44
2021/05/02 02:09:56;;;;;;;51.23;39.83;;;;;;;;;;5006452;28;20197;-44
2021/05/02 02:12:21;;;;;;;62.37;43.50;;;;;;;;;;5007367;28;20218;-44
2021/05/02 02:14:50;;;;;;;59.95;41.38;;;;;;;;;;5007512;28;20192;-45
2021/05/02 02:17:15;;;;;;;55.70;40.33;;;;;;;;;;5006961;28;20259;-44
2021/05/02 02:19:41;;;;;;;70.20;46.60;;;;;;;;;;5006805;28;20617;-44
2021/05/02 02:22:06;;;;;;;78.27;48.60;;;;;;;;;;5006602;28;20173;-46
2021/05/02 02:24:52;;;;;;;56.40;41.47;;;;;;;;;;5007256;28;20180;-43
2021/05/02 02:27:19;;;;;;;62.57;42.27;;;;;;;;;;4993409;28;20180;-43
2021/05/02 02:29:46;;;;;;;60.97;43.70;;;;;;;;;;5006910;28;20649;-45
2021/05/02 02:32:12;;;;;;;58.50;42.10;;;;;;;;;;5007530;28;21425;-45
2021/05/02 02:34:44;;;;;;;65.90;45.60;;;;;;;;;;5006135;28;21170;-45
2021/05/02 02:37:13;;;;;;;56.83;43.23;;;;;;;;;;5006606;28;21178;-45
2021/05/02 02:39:41;;;;;;;70.70;45.17;;;;;;;;;;5004607;28;20596;-46
2021/05/02 02:42:07;;;;;;;66.60;45.27;;;;;;;;;;5006361;28;20592;-45
2021/05/02 02:44:33;;;;;;;55.43;40.77;;;;;;;;;;5006745;28;20730;-45
2021/05/02 02:47:00;;;;;;;61.70;44.40;;;;;;;;;;5006937;28;20599;-44
2021/05/02 02:49:27;;;;;;;57.17;42.20;;;;;;;;;;5006286;28;20598;-46
2021/05/02 02:51:54;;;;;;;50.60;37.40;;;;;;;;;;5006325;28;21169;-45
2021/05/02 02:54:20;;;;;;;66.53;42.30;;;;;;;;;;5007068;28;20600;-46
2021/05/02 02:56:46;;;;;;;54.67;39.23;;;;;;;;;;5006363;28;20605;-46
2021/05/02 02:59:14;;;;;;;48.77;36.40;;;;;;;;;;5007535;28;20608;-46
2021/05/02 03:01:40;;;;;;;55.50;38.43;;;;;;;;;;5006448;28;20208;-46
2021/05/02 03:04:06;;;;;;;68.33;44.70;;;;;;;;;;5006442;28;20596;-44
2021/05/02 03:06:33;;;;;;;56.00;38.90;;;;;;;;;;5006476;28;21202;-45
2021/05/02 03:08:58;;;;;;;49.03;35.70;;;;;;;;;;5009814;28;20173;-45
2021/05/02 03:11:26;;;;;;;52.85;35.95;;;;;;;;;;5010162;28;20647;-45
2021/05/02 03:13:52;;;;;;;45.77;33.80;;;;;;;;;;5010320;28;20236;-47
2021/05/02 03:16:19;;;;;;;48.27;32.77;;;;;;;;;;5010607;28;20650;-45
2021/05/02 03:18:53;;;;;;;39.20;28.97;;;;;;;;;;5008990;28;20576;-45
2021/05/02 03:21:22;;;;;;;34.50;26.13;;;;;;;;;;5010095;28;20615;-45
2021/05/02 03:23:49;;;;;;;36.40;26.00;;;;;;;;;;5009716;28;20602;-45
2021/05/02 03:26:14;;;;;;;28.53;22.43;;;;;;;;;;5009838;28;20622;-45
2021/05/02 03:28:46;;;;;;;26.80;20.60;;;;;;;;;;5009817;28;20590;-45
2021/05/02 03:31:12;;;;;;;26.97;21.20;;;;;;;;;;5009844;28;20242;-45
2021/05/02 03:33:41;;;;;;;29.07;22.60;;;;;;;;;;5009669;28;20597;-45
2021/05/02 03:36:09;;;;;;;34.63;23.83;;;;;;;;;;5008763;28;20634;-44
2021/05/02 03:38:44;;;;;;;33.27;25.40;;;;;;;;;;5008822;28;20653;-44
2021/05/02 03:41:10;;;;;;;35.40;24.83;;;;;;;;;;5009918;28;20604;-44
2021/05/02 03:43:37;;;;;;;39.33;27.17;;;;;;;;;;5010043;28;20592;-45
2021/05/02 03:46:02;;;;;;;34.27;25.17;;;;;;;;;;5009778;28;20635;-44
2021/05/02 03:48:27;;;;;;;39.47;27.47;;;;;;;;;;5008576;28;20615;-44
2021/05/02 03:50:52;;;;;;;34.63;26.73;;;;;;;;;;5009343;28;20165;-44
2021/05/02 03:53:18;;;;;;;34.15;25.45;;;;;;;;;;5009435;28;20176;-44
2021/05/02 03:55:44;;;;;;;28.60;24.20;;;;;;;;;;5009003;28;20532;-44
2021/05/02 03:58:13;;;;;;;30.67;22.50;;;;;;;;;;5009216;28;20223;-44
2021/05/02 04:00:39;;;;;;;31.43;25.03;;;;;;;;;;5009063;28;20598;-43
2021/05/02 04:03:04;;;;;;;32.23;23.57;;;;;;;;;;5009024;28;20707;-44
2021/05/02 04:05:29;;;;;;;27.40;22.53;;;;;;;;;;5008634;28;20184;-44
2021/05/02 04:07:55;;;;;;;24.52;21.58;;;;;;;;;;5009085;28;20201;-44
2021/05/02 04:10:20;;;;;;;35.73;25.70;;;;;;;;;;5009341;28;20593;-44
2021/05/02 04:12:45;;;;;;;31.67;24.05;;;;;;;;;;5006540;28;20274;-44
2021/05/02 04:15:11;;;;;;;34.85;27.30;;;;;;;;;;5009369;28;20216;-44
2021/05/02 04:17:36;;;;;;;31.83;26.63;;;;;;;;;;5008160;28;20204;-44
2021/05/02 04:20:01;;;;;;;30.17;25.55;;;;;;;;;;5007763;28;20229;-43
2021/05/02 04:22:30;;;;;;;34.57;26.10;;;;;;;;;;5008392;28;20178;-43
2021/05/02 04:24:55;;;;;;;32.23;27.20;;;;;;;;;;5008352;28;20567;-44
2021/05/02 04:27:20;;;;;;;52.07;34.13;;;;;;;;;;5008894;28;20689;-43
2021/05/02 04:29:46;;;;;;;37.63;29.43;;;;;;;;;;5009125;28;20184;-44
2021/05/02 04:32:11;;;;;;;52.08;34.47;;;;;;;;;;5008939;28;20242;-43
2021/05/02 04:34:36;;;;;;;38.03;29.50;;;;;;;;;;5008101;28;20243;-43
2021/05/02 04:37:01;;;;;;;44.93;31.83;;;;;;;;;;5008793;28;20202;-43
2021/05/02 04:39:27;;;;;;;48.20;34.60;;;;;;;;;;5008061;28;20575;-43
2021/05/02 04:41:53;;;;;;;48.93;34.83;;;;;;;;;;5008318;28;20183;-43
2021/05/02 04:44:18;;;;;;;44.23;32.03;;;;;;;;;;5008739;28;20608;-43
2021/05/02 04:46:43;;;;;;;49.97;34.67;;;;;;;;;;5007872;28;20178;-43
2021/05/02 04:49:09;;;;;;;45.60;33.57;;;;;;;;;;5007772;28;20266;-43
2021/05/02 04:51:34;;;;;;;46.13;33.83;;;;;;;;;;5009090;28;20177;-43
2021/05/02 04:54:00;;;;;;;43.33;32.70;;;;;;;;;;5008023;28;20179;-43
2021/05/02 04:56:25;;;;;;;43.47;33.23;;;;;;;;;;5008272;28;20189;-43
2021/05/02 04:58:50;;;;;;;60.40;38.90;;;;;;;;;;5007701;28;20695;-43
2021/05/02 05:01:15;;;;;;;45.95;33.25;;;;;;;;;;5008645;28;20256;-43
2021/05/02 05:03:41;;;;;;;49.63;35.10;;;;;;;;;;5008219;28;20213;-44
2021/05/02 05:06:06;;;;;;;44.00;34.30;;;;;;;;;;5007188;28;20245;-44
2021/05/02 05:08:31;;;;;;;47.47;34.07;;;;;;;;;;5007411;28;20625;-44
2021/05/02 05:10:57;;;;;;;52.67;37.20;;;;;;;;;;5004875;28;20204;-44
2021/05/02 05:13:22;;;;;;;47.60;35.13;;;;;;;;;;5008051;28;20243;-44
2021/05/02 05:15:47;;;;;;;44.57;33.40;;;;;;;;;;5008127;28;20269;-43
2021/05/02 05:18:12;;;;;;;53.92;36.33;;;;;;;;;;5007644;28;20208;-43
2021/05/02 05:20:37;;;;;;;46.35;32.20;;;;;;;;;;5007781;28;20216;-44
2021/05/02 05:23:02;;;;;;;36.90;29.80;;;;;;;;;;5008030;28;20517;-44
2021/05/02 05:25:27;;;;;;;44.33;32.83;;;;;;;;;;5007107;28;20823;-44
2021/05/02 05:27:53;;;;;;;37.03;30.73;;;;;;;;;;5007623;28;20641;-45
2021/05/02 05:30:18;;;;;;;35.67;28.07;;;;;;;;;;5003591;28;20252;-44
2021/05/02 05:32:43;;;;;;;42.23;32.37;;;;;;;;;;5008245;28;20638;-44
2021/05/02 05:35:08;;;;;;;38.85;30.48;;;;;;;;;;5007184;28;20223;-44
2021/05/02 05:37:34;;;;;;;47.00;33.40;;;;;;;;;;5007823;28;20290;-43
2021/05/02 05:39:59;;;;;;;41.80;30.60;;;;;;;;;;5006336;28;20180;-43
2021/05/02 05:42:24;;;;;;;42.57;32.17;;;;;;;;;;5007356;28;20238;-42
2021/05/02 05:44:49;;;;;;;48.90;34.50;;;;;;;;;;5007924;28;20202;-43
2021/05/02 05:47:14;;;;;;;38.77;30.57;;;;;;;;;;5007437;28;20258;-42
2021/05/02 05:49:40;;;;;;;37.27;29.60;;;;;;;;;;5007718;28;20182;-43
2021/05/02 05:52:06;;;;;;;33.03;26.03;;;;;;;;;;5007633;28;20191;-44
2021/05/02 05:54:31;;;;;;;35.77;27.97;;;;;;;;;;5008329;28;20595;-43
2021/05/02 05:56:57;;;;;;;30.47;24.70;;;;;;;;;;5006661;28;20178;-44
2021/05/02 05:59:22;;;;;;;33.40;25.77;;;;;;;;;;5006746;28;20185;-43
2021/05/02 06:01:47;;;;;;;33.60;28.20;;;;;;;;;;5007558;28;20246;-45
2021/05/02 06:04:12;;;;;;;43.38;31.95;;;;;;;;;;4996739;28;20238;-44
2021/05/02 06:06:38;;;;;;;33.93;28.10;;;;;;;;;;5003311;28;20643;-44
2021/05/02 06:09:05;;;;;;;39.40;29.63;;;;;;;;;;5011163;28;20311;-44
2021/05/02 06:11:30;;;;;;;37.83;29.43;;;;;;;;;;5007286;28;20262;-45
2021/05/02 06:13:56;;;;;;;42.63;31.73;;;;;;;;;;5003408;28;20610;-44
2021/05/02 06:16:21;;;;;;;41.80;30.47;;;;;;;;;;5002439;28;20185;-44
2021/05/02 06:18:46;;;;;;;41.30;29.80;;;;;;;;;;5001053;28;20215;-45
2021/05/02 06:21:11;;;;;;;42.20;30.70;;;;;;;;;;4998739;28;20170;-44
2021/05/02 06:23:37;;;;;;;50.00;34.50;;;;;;;;;;4994527;28;20216;-44
2021/05/02 06:26:02;;;;;;;42.50;31.70;;;;;;;;;;4996302;28;20186;-43
2021/05/02 06:28:27;;;;;;;35.07;28.97;;;;;;;;;;5000627;28;20194;-44
2021/05/02 06:30:52;;;;;;;40.45;30.90;;;;;;;;;;5000869;28;20656;-43
2021/05/02 06:33:17;;;;;;;37.63;29.45;;;;;;;;;;5001187;28;20196;-43
2021/05/02 06:35:42;;;;;;;35.10;28.40;;;;;;;;;;4998883;28;20215;-43
2021/05/02 06:38:08;;;;;;;34.27;28.37;;;;;;;;;;4996535;28;20211;-44
2021/05/02 06:40:33;;;;;;;37.20;28.37;;;;;;;;;;4998228;28;20175;-45
2021/05/02 06:43:00;;;;;;;42.73;28.90;;;;;;;;;;4999769;28;20596;-44
2021/05/02 06:45:25;;;;;;;34.63;27.70;;;;;;;;;;4998979;28;20265;-44
2021/05/02 06:47:50;;;;;;;37.33;28.73;;;;;;;;;;5003368;28;20665;-43
2021/05/02 06:50:15;;;;;;;35.70;27.33;;;;;;;;;;5004214;28;20188;-43
2021/05/02 06:52:41;;;;;;;37.70;28.60;;;;;;;;;;4999035;28;20528;-42
2021/05/02 06:55:06;;;;;;;36.30;27.97;;;;;;;;;;4991757;28;20177;-42
2021/05/02 06:57:32;;;;;;;35.93;28.00;;;;;;;;;;5001327;28;20208;-43
2021/05/02 06:59:57;;;;;;;38.90;29.60;;;;;;;;;;5002043;28;20172;-43
2021/05/02 07:02:23;;;;;;;33.70;24.83;;;;;;;;;;5003735;28;20618;-43
2021/05/02 07:04:48;;;;;;;33.05;26.02;;;;;;;;;;5000168;28;20184;-43
2021/05/02 07:07:13;;;;;;;30.70;26.47;;;;;;;;;;5005656;28;20642;-42
2021/05/02 07:09:38;;;;;;;37.78;29.08;;;;;;;;;;5004049;28;20682;-44
2021/05/02 07:12:03;;;;;;;34.40;27.13;;;;;;;;;;5002142;28;20227;-43
2021/05/02 07:14:29;;;;;;;36.70;28.30;;;;;;;;;;5001644;28;20642;-43
2021/05/02 07:16:54;;;;;;;33.97;25.90;;;;;;;;;;5002333;28;20234;-43
2021/05/02 07:19:21;;;;;;;34.20;26.30;;;;;;;;;;4992863;28;20999;-43
2021/05/02 07:21:47;;;;;;;39.73;29.27;;;;;;;;;;5003388;28;20613;-43
2021/05/02 07:24:14;;;;;;;44.63;30.90;;;;;;;;;;5004044;28;20756;-43
2021/05/02 07:26:39;;;;;;;34.37;27.23;;;;;;;;;;4998476;28;20213;-44
2021/05/02 07:29:04;;;;;;;34.50;27.23;;;;;;;;;;5009586;28;20611;-44
2021/05/02 07:31:29;;;;;;;40.60;30.92;;;;;;;;;;5009375;28;20180;-43
2021/05/02 07:33:54;;;;;;;37.40;29.33;;;;;;;;;;5010453;28;20174;-43
2021/05/02 07:36:19;;;;;;;33.40;27.17;;;;;;;;;;5009291;28;20201;-42
2021/05/02 07:38:45;;;;;;;33.45;25.90;;;;;;;;;;5008560;28;20274;-43
2021/05/02 07:41:10;;;;;;;30.27;24.73;;;;;;;;;;5008997;28;20186;-44
2021/05/02 07:43:36;;;;;;;31.83;26.93;;;;;;;;;;5010008;28;20318;-44
2021/05/02 07:46:01;;;;;;;29.47;25.30;;;;;;;;;;5006493;28;20651;-43
2021/05/02 07:48:26;;;;;;;29.00;25.10;;;;;;;;;;5009827;28;20613;-44
2021/05/02 07:50:51;;;;;;;34.80;26.53;;;;;;;;;;5009336;28;20635;-44
2021/05/02 07:53:18;;;;;;;34.85;26.65;;;;;;;;;;5008522;28;20528;-44
2021/05/02 07:55:43;;;;;;;37.40;28.37;;;;;;;;;;5008903;28;20286;-44
2021/05/02 07:58:08;;;;;;;30.60;25.03;;;;;;;;;;5004324;28;21781;-44
2021/05/02 08:00:33;;;;;;;36.17;25.88;;;;;;;;;;5006531;28;20622;-44
2021/05/02 08:02:58;;;;;;;32.53;26.23;;;;;;;;;;5005321;28;20616;-43
2021/05/02 08:05:24;;;;;;;29.00;24.57;;;;;;;;;;5002081;28;20590;-43
2021/05/02 08:07:49;;;;;;;33.10;26.00;;;;;;;;;;4996877;28;20268;-43
2021/05/02 08:10:14;;;;;;;35.55;27.55;;;;;;;;;;4992244;28;20198;-43
2021/05/02 08:12:39;;;;;;;36.83;29.23;;;;;;;;;;5002458;28;20284;-44
2021/05/02 08:15:05;;;;;;;37.20;29.07;;;;;;;;;;4999920;28;20232;-44
2021/05/02 08:17:31;;;;;;;36.50;29.87;;;;;;;;;;5004327;28;20678;-44
2021/05/02 08:19:56;;;;;;;34.33;26.92;;;;;;;;;;5005707;28;20594;-44
2021/05/02 08:22:21;;;;;;;41.40;31.15;;;;;;;;;;5007437;28;20708;-45
2021/05/02 08:24:46;;;;;;;42.33;32.83;;;;;;;;;;5020659;28;20180;-44
2021/05/02 08:27:12;;;;;;;43.30;32.30;;;;;;;;;;4998970;28;20352;-44
2021/05/02 08:29:37;;;;;;;42.27;33.13;;;;;;;;;;5006894;28;20175;-44
2021/05/02 08:32:02;;;;;;;42.63;31.87;;;;;;;;;;5002245;28;20198;-44
2021/05/02 08:34:27;;;;;;;41.17;32.23;;;;;;;;;;5006344;28;20188;-44
2021/05/02 08:36:52;;;;;;;42.03;33.30;;;;;;;;;;5001610;28;20182;-44
2021/05/02 08:39:17;;;;;;;41.83;32.30;;;;;;;;;;4994438;28;20200;-44
2021/05/02 08:41:43;;;;;;;42.25;33.15;;;;;;;;;;4992208;28;20181;-43
2021/05/02 08:44:08;;;;;;;40.73;30.20;;;;;;;;;;5006928;28;20194;-44
2021/05/02 08:46:33;;;;;;;58.57;36.73;;;;;;;;;;5005172;28;20614;-44
2021/05/02 08:48:59;;;;;;;40.40;31.67;;;;;;;;;;5000734;28;20636;-44
2021/05/02 08:51:24;;;;;;;40.28;31.85;;;;;;;;;;4998295;28;20688;-43
2021/05/02 08:53:49;;;;;;;42.03;32.70;;;;;;;;;;5008734;28;20641;-46
2021/05/02 08:56:14;;;;;;;51.33;34.90;;;;;;;;;;5008679;28;20183;-43
2021/05/02 08:58:40;;;;;;;42.80;30.83;;;;;;;;;;5006269;28;20201;-44
2021/05/02 09:01:05;;;;;;;40.10;31.83;;;;;;;;;;5007248;28;20579;-44
2021/05/02 09:03:46;;;;;;;36.97;30.43;;;;;;;;;;5000374;28;20189;-44
2021/05/02 09:06:15;;;;;;;42.90;32.77;;;;;;;;;;4999320;28;20650;-45
2021/05/02 09:08:40;;;;;;;40.53;31.60;;;;;;;;;;4998640;28;21238;-45
2021/05/02 09:11:05;;;;;;;42.33;32.60;;;;;;;;;;4992747;28;21135;-45
2021/05/02 09:13:31;;;;;;;44.20;33.43;;;;;;;;;;5004349;28;20675;-45
2021/05/02 09:15:57;;;;;;;41.53;32.30;;;;;;;;;;5000716;28;20178;-44
2021/05/02 09:18:32;;;;;;;40.67;33.40;;;;;;;;;;4999902;28;20225;-44
2021/05/02 09:20:57;;;;;;;39.10;32.00;;;;;;;;;;5004339;28;20257;-45
2021/05/02 09:23:22;;;;;;;41.85;34.05;;;;;;;;;;5008531;28;21015;-44
2021/05/02 09:25:49;;;;;;;39.83;31.17;;;;;;;;;;5004910;28;20166;-45
2021/05/02 09:28:15;;;;;;;40.30;31.57;;;;;;;;;;5007300;28;20647;-44
2021/05/02 09:30:40;;;;;;;41.30;32.17;;;;;;;;;;5002289;28;20617;-44
2021/05/02 09:33:06;;;;;;;44.30;34.03;;;;;;;;;;5007604;28;20203;-45
2021/05/02 09:35:32;;;;;;;43.57;34.37;;;;;;;;;;5022767;28;20205;-44
2021/05/02 09:38:11;;;;;;;39.40;32.27;;;;;;;;;;5006288;28;20211;-44
2021/05/02 09:40:52;;;;;;;38.40;30.53;;;;;;;;;;5004371;28;21008;-44
2021/05/02 09:43:30;;;;;;;34.37;27.93;;;;;;;;;;5002375;28;20667;-45
2021/05/02 09:46:08;;;;;;;33.50;29.37;;;;;;;;;;5006466;28;20619;-44
2021/05/02 09:48:34;;;;;;;35.97;30.27;;;;;;;;;;5005042;28;20607;-45
2021/05/02 09:51:12;;;;;;;31.73;28.23;;;;;;;;;;5007711;28;20618;-45
2021/05/02 09:53:37;;;;;;;32.30;28.87;;;;;;;;;;5004607;28;21654;-44
2021/05/02 09:56:12;;;;;;;30.65;27.10;;;;;;;;;;5004604;28;20599;-45
2021/05/02 09:58:37;;;;;;;29.33;26.13;;;;;;;;;;5001151;28;20306;-44
2021/05/02 10:01:02;;;;;;;28.80;25.77;;;;;;;;;;5001929;28;20706;-43
2021/05/02 10:03:29;;;;;;;31.00;26.97;;;;;;;;;;5005949;28;20181;-44
2021/05/02 10:05:57;;;;;;;29.80;26.70;;;;;;;;;;4998586;28;20192;-44
2021/05/02 10:08:26;;;;;;;27.30;24.30;;;;;;;;;;5002008;28;20604;-44
2021/05/02 10:10:52;;;;;;;27.53;24.73;;;;;;;;;;5007143;28;20655;-45
2021/05/02 10:13:17;;;;;;;27.83;25.00;;;;;;;;;;5006908;28;20751;-45
2021/05/02 10:15:42;;;;;;;26.10;23.40;;;;;;;;;;5007300;28;21053;-45
2021/05/02 10:18:09;;;;;;;25.60;23.20;;;;;;;;;;5011147;28;20274;-45
2021/05/02 10:20:34;;;;;;;24.83;22.23;;;;;;;;;;4993866;28;20198;-45
2021/05/02 10:23:01;;;;;;;24.20;21.70;;;;;;;;;;5010987;28;21012;-45
2021/05/02 10:25:26;;;;;;;24.63;22.20;;;;;;;;;;5004557;28;20268;-45
2021/05/02 10:27:51;;;;;;;21.73;19.60;;;;;;;;;;5006156;28;20699;-45
2021/05/02 10:30:27;;;;;;;24.57;22.00;;;;;;;;;;5006218;28;20186;-44
2021/05/02 10:32:53;;;;;;;22.57;20.50;;;;;;;;;;5008873;28;20186;-45
2021/05/02 10:35:19;;;;;;;24.20;21.80;;;;;;;;;;5001677;28;20610;-45
2021/05/02 10:37:55;;;;;;;22.70;20.40;;;;;;;;;;5008363;28;20651;-44
2021/05/02 10:40:20;;;;;;;22.30;20.10;;;;;;;;;;5009059;28;20601;-45
2021/05/02 10:42:48;;;;;;;23.37;21.17;;;;;;;;;;5010685;28;20600;-45
2021/05/02 10:45:40;;;;;;;22.70;20.60;;;;;;;;;;5009541;28;20614;-46
2021/05/02 10:48:10;;;;;;;21.90;19.70;;;;;;;;;;5010308;28;21439;-44
2021/05/02 10:50:42;;;;;;;21.87;19.67;;;;;;;;;;5003877;28;21533;-46
2021/05/02 10:53:11;;;;;;;21.23;19.13;;;;;;;;;;4999877;28;20604;-44
2021/05/02 10:55:51;;;;;;;21.20;19.10;;;;;;;;;;5003135;28;20636;-44
2021/05/02 10:58:17;;;;;;;21.60;19.50;;;;;;;;;;5004944;28;20658;-44
2021/05/02 11:00:49;;;;;;;20.77;18.73;;;;;;;;;;4999558;28;20614;-44
2021/05/02 11:03:33;;;;;;;20.67;18.77;;;;;;;;;;4996757;28;20624;-44
2021/05/02 11:05:58;;;;;;;19.63;17.87;;;;;;;;;;5001125;28;20608;-45
2021/05/02 11:08:43;;;;;;;20.87;18.87;;;;;;;;;;5006044;28;20631;-45
2021/05/02 11:11:28;;;;;;;19.70;17.90;;;;;;;;;;4997673;28;20292;-44
2021/05/02 11:14:15;;;;;;;19.60;17.83;;;;;;;;;;4996056;28;20608;-46
2021/05/02 11:16:40;;;;;;;20.23;18.33;;;;;;;;;;4998603;28;21331;-45
2021/05/02 11:19:06;;;;;;;19.17;17.40;;;;;;;;;;5004038;28;20742;-43
2021/05/02 11:22:19;;;;;;;20.37;18.37;;;;;;;;;;5005706;28;20174;-45
2021/05/02 11:24:47;;;;;;;20.37;18.37;;;;;;;;;;5017724;28;20653;-44
2021/05/02 11:27:36;;;;;;;19.33;17.27;;;;;;;;;;5004587;28;20897;-45
2021/05/02 11:30:07;;;;;;;17.97;16.17;;;;;;;;;;4996604;28;20597;-45
2021/05/02 11:32:37;;;;;;;17.23;15.63;;;;;;;;;;5008985;28;20596;-44
2021/05/02 11:35:04;;;;;;;16.70;15.10;;;;;;;;;;5010233;28;20602;-46
2021/05/02 11:37:48;;;;;;;16.67;15.17;;;;;;;;;;5009796;28;20700;-46
2021/05/02 11:40:28;;;;;;;19.00;17.07;;;;;;;;;;5008798;28;21241;-45
2021/05/02 11:42:57;;;;;;;17.10;15.50;;;;;;;;;;5008503;28;20814;-45
2021/05/02 11:45:24;;;;;;;19.07;17.20;;;;;;;;;;5009074;28;20589;-45
2021/05/02 11:47:49;;;;;;;19.67;17.80;;;;;;;;;;4996425;28;21197;-44
2021/05/02 11:50:15;;;;;;;23.83;21.43;;;;;;;;;;5004761;28;20611;-44
2021/05/02 11:52:45;;;;;;;20.47;18.47;;;;;;;;;;5007515;28;20191;-44
2021/05/02 11:55:30;;;;;;;22.30;20.10;;;;;;;;;;5004346;28;20219;-44
2021/05/02 11:57:56;;;;;;;27.47;24.47;;;;;;;;;;5007928;28;20647;-45
2021/05/02 12:00:37;;;;;;;25.67;22.90;;;;;;;;;;5006687;28;20600;-44
2021/05/02 12:03:02;;;;;;;26.27;23.43;;;;;;;;;;5009512;28;20613;-44
2021/05/02 12:05:28;;;;;;;26.67;23.87;;;;;;;;;;5005410;28;20620;-44
2021/05/02 12:08:12;;;;;;;31.30;26.83;;;;;;;;;;5006004;28;20194;-44
2021/05/02 12:10:38;;;;;;;31.73;28.43;;;;;;;;;;4987760;28;20665;-44
2021/05/02 12:13:05;;;;;;;29.33;26.23;;;;;;;;;;5000863;28;20659;-44
2021/05/02 12:15:30;;;;;;;32.00;28.60;;;;;;;;;;5005864;28;20714;-44
2021/05/02 12:17:55;;;;;;;31.50;28.30;;;;;;;;;;5005097;28;21223;-44
2021/05/02 12:20:21;;;;;;;30.50;27.27;;;;;;;;;;5006089;28;20385;-44
2021/05/02 12:22:47;;;;;;;30.33;27.30;;;;;;;;;;5005691;28;20177;-44
2021/05/02 12:25:12;;;;;;;31.17;27.97;;;;;;;;;;5006251;28;20611;-45
2021/05/02 12:27:38;;;;;;;31.20;28.10;;;;;;;;;;5003153;28;20613;-44
2021/05/02 12:30:03;;;;;;;28.80;25.60;;;;;;;;;;5005969;28;20807;-44
2021/05/02 12:32:28;;;;;;;30.97;27.50;;;;;;;;;;5005190;28;20344;-44
2021/05/02 12:34:53;;;;;;;29.33;26.20;;;;;;;;;;4993104;28;20559;-45
2021/05/02 12:37:20;;;;;;;29.63;26.40;;;;;;;;;;4998345;28;20543;-45
2021/05/02 12:39:46;;;;;;;30.40;27.27;;;;;;;;;;4993550;28;20188;-45
2021/05/02 12:42:12;;;;;;;33.73;29.27;;;;;;;;;;5006453;28;20698;-44
2021/05/02 12:44:38;;;;;;;32.00;28.70;;;;;;;;;;5005018;28;20760;-44
2021/05/02 12:47:13;;;;;;;35.60;31.83;;;;;;;;;;5002787;28;20187;-44
2021/05/02 12:49:49;;;;;;;32.70;29.20;;;;;;;;;;5005251;28;20978;-45
2021/05/02 12:52:14;;;;;;;30.80;27.70;;;;;;;;;;5005074;28;21127;-45
2021/05/02 12:54:39;;;;;;;31.70;28.17;;;;;;;;;;5005539;28;20594;-45
2021/05/02 12:57:06;;;;;;;31.23;28.00;;;;;;;;;;5004337;28;20611;-44
2021/05/02 12:59:58;;;;;;;31.60;28.40;;;;;;;;;;5002367;28;20208;-45
2021/05/02 13:02:24;;;;;;;33.93;30.40;;;;;;;;;;5003596;28;20962;-44
2021/05/02 13:04:51;;;;;;;32.53;29.23;;;;;;;;;;5004497;28;20719;-44
2021/05/02 13:07:30;;;;;;;31.20;28.00;;;;;;;;;;5004063;28;20644;-44
2021/05/02 13:09:55;;;;;;;31.37;28.17;;;;;;;;;;5004110;28;21229;-44
2021/05/02 13:12:20;;;;;;;33.70;30.20;;;;;;;;;;5005158;28;20763;-45
2021/05/02 13:15:00;;;;;;;30.03;26.80;;;;;;;;;;5004843;28;20185;-44
2021/05/02 13:17:26;;;;;;;30.00;26.80;;;;;;;;;;5002827;28;20173;-45
2021/05/02 13:19:56;;;;;;;28.08;25.13;;;;;;;;;;5005075;28;20614;-44
2021/05/02 13:22:28;;;;;;;31.07;27.87;;;;;;;;;;5004408;28;20174;-44
2021/05/02 13:24:57;;;;;;;29.07;26.20;;;;;;;;;;5001917;28;20610;-45
2021/05/02 13:27:31;;;;;;;29.57;26.37;;;;;;;;;;5004370;28;20694;-45
2021/05/02 13:29:57;;;;;;;29.03;26.03;;;;;;;;;;5007955;28;20584;-44
2021/05/02 13:32:22;;;;;;;27.30;24.45;;;;;;;;;;5007220;28;20710;-43
2021/05/02 13:34:47;;;;;;;27.50;24.67;;;;;;;;;;5004851;28;20191;-45
2021/05/02 13:37:12;;;;;;;28.88;25.98;;;;;;;;;;5002372;28;20215;-45
2021/05/02 13:39:37;;;;;;;29.88;26.73;;;;;;;;;;5005611;28;20630;-45
2021/05/02 13:42:05;;;;;;;27.90;24.90;;;;;;;;;;5003891;28;20176;-45
2021/05/02 13:44:30;;;;;;;26.70;22.80;;;;;;;;;;5003625;28;20258;-45
2021/05/02 13:46:57;;;;;;;27.37;24.57;;;;;;;;;;5007387;28;20702;-45
2021/05/02 13:49:22;;;;;;;28.20;25.30;;;;;;;;;;5003609;28;20239;-45
2021/05/02 13:51:49;;;;;;;28.27;25.37;;;;;;;;;;5002269;28;20617;-45
2021/05/02 13:54:14;;;;;;;27.90;25.00;;;;;;;;;;5004198;28;20185;-45
2021/05/02 13:56:39;;;;;;;27.17;24.47;;;;;;;;;;5003628;28;20908;-47
2021/05/02 13:59:04;;;;;;;27.40;24.50;;;;;;;;;;5004676;28;20902;-45
2021/05/02 14:01:30;;;;;;;23.37;21.00;;;;;;;;;;5003455;28;20241;-45
2021/05/02 14:03:55;;;;;;;24.23;21.73;;;;;;;;;;5002934;28;20222;-45
2021/05/02 14:06:21;;;;;;;24.30;21.77;;;;;;;;;;5001445;28;20265;-45
2021/05/02 14:08:46;;;;;;;24.03;21.23;;;;;;;;;;5003845;28;20195;-44
2021/05/02 14:11:11;;;;;;;23.70;21.23;;;;;;;;;;5003647;28;20305;-44
2021/05/02 14:13:37;;;;;;;24.10;21.60;;;;;;;;;;5004633;28;20195;-45
2021/05/02 14:16:02;;;;;;;24.83;20.90;;;;;;;;;;5003404;28;20202;-44
2021/05/02 14:18:27;;;;;;;22.13;19.93;;;;;;;;;;5001285;28;20227;-44